Time,TemperatureF,DewpointF,PressureIn,WindDirection,WindDirectionDegrees,WindSpeedMPH,WindSpeedGustMPH,Humidity,HourlyPrecipIn,Conditions,Clouds,dailyrainin,SoftwareType,DateUTC
2013-06-20 00:03:00,82.2,79.0,29.97,North,-999,0.0,0.0,90,0.00,,,-99.99,FreeWX 2.03,2013-06-20 05:03:00,
2013-06-20 00:08:00,82.2,79.0,29.97,North,-999,0.0,0.0,90,0.00,,,-99.99,FreeWX 2.03,2013-06-20 05:08:00,
2013-06-20 00:13:00,82.2,79.3,29.97,North,-999,0.0,0.0,91,0.00,,,-99.99,FreeWX 2.03,2013-06-20 05:13:00,
2013-06-20 00:18:00,82.0,79.2,29.97,North,-999,0.0,0.0,91,0.00,,,-99.99,FreeWX 2.03,2013-06-20 05:18:00,
2013-06-20 00:23:00,82.0,79.5,29.97,North,-999,0.0,0.0,92,0.00,,,-99.99,FreeWX 2.03,2013-06-20 05:23:00,
2013-06-20 00:28:00,81.9,79.3,29.94,North,-999,0.0,0.0,92,0.00,,,-99.99,FreeWX 2.03,2013-06-20 05:28:00,
2013-06-20 00:33:00,81.7,79.2,29.94,North,-999,0.0,0.0,92,0.00,,,-99.99,FreeWX 2.03,2013-06-20 05:33:00,
2013-06-20 00:38:00,81.7,79.2,29.94,North,-999,0.0,0.0,92,0.00,,,-99.99,FreeWX 2.03,2013-06-20 05:38:00,
2013-06-20 00:43:00,81.9,79.7,29.94,North,-999,0.0,0.0,93,0.00,,,-99.99,FreeWX 2.03,2013-06-20 05:43:00,
2013-06-20 00:48:00,81.9,79.7,29.94,North,-999,0.0,0.0,93,0.00,,,-99.99,FreeWX 2.03,2013-06-20 05:48:00,
2013-06-20 00:53:00,81.7,79.2,29.94,North,-999,0.0,0.0,92,0.00,,,-99.99,FreeWX 2.03,2013-06-20 05:53:00,
2013-06-20 00:58:00,81.7,79.5,29.94,North,-999,0.0,0.0,93,0.00,,,-99.99,FreeWX 2.03,2013-06-20 05:58:00,
2013-06-20 01:03:00,81.7,79.5,29.94,North,-999,0.0,0.0,93,0.00,,,-99.99,FreeWX 2.03,2013-06-20 06:03:00,
2013-06-20 01:08:00,81.5,79.3,29.94,North,-999,0.0,0.0,93,0.00,,,-99.99,FreeWX 2.03,2013-06-20 06:08:00,
2013-06-20 01:13:00,81.5,79.3,29.94,North,-999,0.0,0.0,93,0.00,,,-99.99,FreeWX 2.03,2013-06-20 06:13:00,
2013-06-20 01:18:00,81.3,79.2,29.94,North,-999,0.0,0.0,93,0.00,,,-99.99,FreeWX 2.03,2013-06-20 06:18:00,
2013-06-20 01:23:00,81.3,79.2,29.94,North,-999,0.0,0.0,93,0.00,,,-99.99,FreeWX 2.03,2013-06-20 06:23:00,
2013-06-20 01:28:00,81.3,79.2,29.94,North,-999,0.0,0.0,93,0.00,,,-99.99,FreeWX 2.03,2013-06-20 06:28:00,
2013-06-20 01:33:00,81.1,79.2,29.94,North,-999,0.0,0.0,94,0.00,,,-99.99,FreeWX 2.03,2013-06-20 06:33:00,
2013-06-20 01:38:00,81.1,79.2,29.94,North,-999,0.0,0.0,94,0.00,,,-99.99,FreeWX 2.03,2013-06-20 06:38:00,
2013-06-20 01:44:00,81.0,79.0,29.94,North,-999,0.0,0.0,94,0.00,,,-99.99,FreeWX 2.03,2013-06-20 06:44:00,
2013-06-20 01:49:00,81.0,79.0,29.94,North,-999,0.0,0.0,94,0.00,,,-99.99,FreeWX 2.03,2013-06-20 06:49:00,
2013-06-20 01:54:00,80.8,78.8,29.94,North,-999,0.0,0.0,94,0.00,,,-99.99,FreeWX 2.03,2013-06-20 06:54:00,
2013-06-20 01:59:00,80.8,78.8,29.94,North,-999,0.0,0.0,94,0.00,,,-99.99,FreeWX 2.03,2013-06-20 06:59:00,
2013-06-20 02:04:00,80.8,79.2,29.94,North,-999,0.0,0.0,95,0.00,,,-99.99,FreeWX 2.03,2013-06-20 07:04:00,
2013-06-20 02:09:00,81.0,79.3,29.94,North,-999,0.0,0.0,95,0.00,,,-99.99,FreeWX 2.03,2013-06-20 07:09:00,
2013-06-20 02:14:00,81.1,79.5,29.94,North,-999,0.0,0.0,95,0.00,,,-99.99,FreeWX 2.03,2013-06-20 07:14:00,
2013-06-20 02:19:00,81.0,79.3,29.94,North,-999,0.0,0.0,95,0.00,,,-99.99,FreeWX 2.03,2013-06-20 07:19:00,
2013-06-20 02:24:00,81.0,79.3,29.94,North,-999,0.0,0.0,95,0.00,,,-99.99,FreeWX 2.03,2013-06-20 07:24:00,
2013-06-20 02:29:00,81.0,79.3,29.94,North,-999,0.0,0.0,95,0.00,,,-99.99,FreeWX 2.03,2013-06-20 07:29:00,
2013-06-20 02:34:00,81.0,79.3,29.94,North,-999,0.0,0.0,95,0.00,,,-99.99,FreeWX 2.03,2013-06-20 07:34:00,
2013-06-20 02:39:00,81.0,79.3,29.94,North,-999,0.0,0.0,95,0.00,,,-99.99,FreeWX 2.03,2013-06-20 07:39:00,
2013-06-20 02:44:00,81.0,79.3,29.94,North,-999,0.0,0.0,95,0.00,,,-99.99,FreeWX 2.03,2013-06-20 07:44:00,
2013-06-20 02:49:00,81.0,79.3,29.94,North,-999,0.0,0.0,95,0.00,,,-99.99,FreeWX 2.03,2013-06-20 07:49:00,
2013-06-20 02:54:00,80.8,79.5,29.94,North,-999,0.0,0.0,96,0.00,,,-99.99,FreeWX 2.03,2013-06-20 07:54:00,
2013-06-20 02:59:00,80.8,79.5,29.94,North,-999,0.0,0.0,96,0.00,,,-99.99,FreeWX 2.03,2013-06-20 07:59:00,
2013-06-20 03:04:00,80.6,79.3,29.94,North,-999,0.0,0.0,96,0.00,,,-99.99,FreeWX 2.03,2013-06-20 08:04:00,
2013-06-20 03:09:00,80.6,79.3,29.94,North,-999,0.0,0.0,96,0.00,,,-99.99,FreeWX 2.03,2013-06-20 08:09:00,
2013-06-20 03:14:00,80.6,79.3,29.94,North,-999,0.0,0.0,96,0.00,,,-99.99,FreeWX 2.03,2013-06-20 08:14:00,
2013-06-20 03:19:00,80.6,79.3,29.94,North,-999,0.0,0.0,96,0.00,,,-99.99,FreeWX 2.03,2013-06-20 08:19:00,
2013-06-20 03:24:00,80.6,79.3,29.94,North,-999,0.0,0.0,96,0.00,,,-99.99,FreeWX 2.03,2013-06-20 08:24:00,
2013-06-20 03:29:00,80.6,79.3,29.91,North,-999,0.0,0.0,96,0.00,,,-99.99,FreeWX 2.03,2013-06-20 08:29:00,
2013-06-20 03:34:00,80.6,79.3,29.91,North,-999,0.0,0.0,96,0.00,,,-99.99,FreeWX 2.03,2013-06-20 08:34:00,
2013-06-20 03:39:00,80.6,79.3,29.91,North,-999,0.0,0.0,96,0.00,,,-99.99,FreeWX 2.03,2013-06-20 08:39:00,
2013-06-20 03:44:00,80.6,79.3,29.91,North,-999,0.0,0.0,96,0.00,,,-99.99,FreeWX 2.03,2013-06-20 08:44:00,
2013-06-20 03:49:00,80.6,79.3,29.91,North,-999,0.0,0.0,96,0.00,,,-99.99,FreeWX 2.03,2013-06-20 08:49:00,
2013-06-20 03:54:00,80.8,79.2,29.91,North,-999,0.0,0.0,95,0.00,,,-99.99,FreeWX 2.03,2013-06-20 08:54:00,
2013-06-20 03:59:00,80.6,79.0,29.91,North,-999,0.0,0.0,95,0.00,,,-99.99,FreeWX 2.03,2013-06-20 08:59:00,
2013-06-20 04:04:00,80.6,79.0,29.91,North,-999,0.0,0.0,95,0.00,,,-99.99,FreeWX 2.03,2013-06-20 09:04:00,
2013-06-20 04:09:00,80.6,79.0,29.91,North,-999,0.0,0.0,95,0.00,,,-99.99,FreeWX 2.03,2013-06-20 09:09:00,
2013-06-20 04:14:00,80.6,79.0,29.94,North,-999,0.0,0.0,95,0.00,,,-99.99,FreeWX 2.03,2013-06-20 09:14:00,
2013-06-20 04:19:00,80.4,78.8,29.94,North,-999,0.0,0.0,95,0.00,,,-99.99,FreeWX 2.03,2013-06-20 09:19:00,
2013-06-20 04:24:00,80.4,79.2,29.94,North,-999,0.0,0.0,96,0.00,,,-99.99,FreeWX 2.03,2013-06-20 09:24:00,
2013-06-20 04:29:00,80.2,79.0,29.94,North,-999,0.0,0.0,96,0.00,,,-99.99,FreeWX 2.03,2013-06-20 09:29:00,
2013-06-20 04:34:00,80.2,79.0,29.94,North,-999,0.0,0.0,96,0.00,,,-99.99,FreeWX 2.03,2013-06-20 09:34:00,
2013-06-20 04:39:00,80.2,79.0,29.94,North,-999,0.0,0.0,96,0.00,,,-99.99,FreeWX 2.03,2013-06-20 09:39:00,
2013-06-20 04:44:00,80.2,79.0,29.91,North,-999,0.0,0.0,96,0.00,,,-99.99,FreeWX 2.03,2013-06-20 09:44:00,
2013-06-20 04:49:00,80.2,79.0,29.91,North,-999,0.0,0.0,96,0.00,,,-99.99,FreeWX 2.03,2013-06-20 09:49:00,
2013-06-20 04:54:00,80.2,79.3,29.91,North,-999,0.0,0.0,97,0.00,,,-99.99,FreeWX 2.03,2013-06-20 09:54:00,
2013-06-20 04:59:00,80.2,79.3,29.91,North,-999,0.0,0.0,97,0.00,,,-99.99,FreeWX 2.03,2013-06-20 09:59:00,
2013-06-20 05:04:00,80.2,79.3,29.91,North,-999,0.0,0.0,97,0.00,,,-99.99,FreeWX 2.03,2013-06-20 10:04:00,
2013-06-20 05:09:00,80.4,79.5,29.91,North,-999,0.0,0.0,97,0.00,,,-99.99,FreeWX 2.03,2013-06-20 10:09:00,
2013-06-20 05:14:00,80.4,79.2,29.91,North,-999,0.0,0.0,96,0.00,,,-99.99,FreeWX 2.03,2013-06-20 10:14:00,
2013-06-20 05:19:00,80.6,79.3,29.91,North,-999,0.0,0.0,96,0.00,,,-99.99,FreeWX 2.03,2013-06-20 10:19:00,
2013-06-20 05:24:00,80.8,79.2,29.91,North,-999,0.0,0.0,95,0.00,,,-99.99,FreeWX 2.03,2013-06-20 10:24:00,
2013-06-20 05:29:00,80.6,79.0,29.91,North,-999,0.0,0.0,95,0.00,,,-99.99,FreeWX 2.03,2013-06-20 10:29:00,
2013-06-20 05:34:00,80.6,79.0,29.91,North,-999,0.0,0.0,95,0.00,,,-99.99,FreeWX 2.03,2013-06-20 10:34:00,
2013-06-20 05:39:00,80.6,79.0,29.91,North,-999,0.0,0.0,95,0.00,,,-99.99,FreeWX 2.03,2013-06-20 10:39:00,
2013-06-20 05:44:00,80.8,79.2,29.91,North,-999,0.0,0.0,95,0.00,,,-99.99,FreeWX 2.03,2013-06-20 10:44:00,
2013-06-20 05:49:00,80.8,79.2,29.91,North,-999,0.0,0.0,95,0.00,,,-99.99,FreeWX 2.03,2013-06-20 10:49:00,
2013-06-20 05:54:00,80.8,79.2,29.91,North,-999,0.0,0.0,95,0.00,,,-99.99,FreeWX 2.03,2013-06-20 10:54:00,
2013-06-20 05:59:00,80.6,79.0,29.91,North,-999,0.0,0.0,95,0.00,,,-99.99,FreeWX 2.03,2013-06-20 10:59:00,
2013-06-20 06:04:00,80.6,79.0,29.91,North,-999,0.0,0.0,95,0.00,,,-99.99,FreeWX 2.03,2013-06-20 11:04:00,
2013-06-20 06:09:00,80.6,79.0,29.91,North,-999,0.0,0.0,95,0.00,,,-99.99,FreeWX 2.03,2013-06-20 11:09:00,
2013-06-20 06:14:00,80.6,79.0,29.94,North,-999,0.0,0.0,95,0.00,,,-99.99,FreeWX 2.03,2013-06-20 11:14:00,
2013-06-20 06:19:00,80.6,79.0,29.94,North,-999,0.0,0.0,95,0.00,,,-99.99,FreeWX 2.03,2013-06-20 11:19:00,
2013-06-20 06:24:00,80.6,79.0,29.94,North,-999,0.0,0.0,95,0.00,,,-99.99,FreeWX 2.03,2013-06-20 11:24:00,
2013-06-20 06:29:00,80.6,79.0,29.94,North,-999,0.0,0.0,95,0.00,,,-99.99,FreeWX 2.03,2013-06-20 11:29:00,
2013-06-20 06:34:00,80.8,79.2,29.94,North,-999,0.0,0.0,95,0.00,,,-99.99,FreeWX 2.03,2013-06-20 11:34:00,
2013-06-20 06:39:00,80.8,79.2,29.94,North,-999,0.0,0.0,95,0.00,,,-99.99,FreeWX 2.03,2013-06-20 11:39:00,
2013-06-20 06:44:00,80.8,79.2,29.94,North,-999,0.0,0.0,95,0.00,,,-99.99,FreeWX 2.03,2013-06-20 11:44:00,
2013-06-20 06:49:00,80.8,79.2,29.94,North,-999,0.0,0.0,95,0.00,,,-99.99,FreeWX 2.03,2013-06-20 11:49:00,
2013-06-20 06:54:00,80.8,79.2,29.94,North,-999,0.0,0.0,95,0.00,,,-99.99,FreeWX 2.03,2013-06-20 11:54:00,
2013-06-20 06:59:00,80.8,79.5,29.94,North,-999,0.0,0.0,96,0.00,,,-99.99,FreeWX 2.03,2013-06-20 11:59:00,
2013-06-20 07:04:00,80.6,79.3,29.94,North,-999,0.0,0.0,96,0.00,,,-99.99,FreeWX 2.03,2013-06-20 12:04:00,
2013-06-20 07:09:00,80.6,79.3,29.94,North,-999,0.0,0.0,96,0.00,,,-99.99,FreeWX 2.03,2013-06-20 12:09:00,
2013-06-20 07:14:00,80.6,79.3,29.94,North,-999,0.0,0.0,96,0.00,,,-99.99,FreeWX 2.03,2013-06-20 12:14:00,
2013-06-20 07:19:00,80.8,79.5,29.94,North,-999,0.0,0.0,96,0.00,,,-99.99,FreeWX 2.03,2013-06-20 12:19:00,
2013-06-20 07:24:00,80.8,79.5,29.94,North,-999,0.0,0.0,96,0.00,,,-99.99,FreeWX 2.03,2013-06-20 12:24:00,
2013-06-20 07:29:00,81.0,79.7,29.94,North,-999,0.0,0.0,96,0.00,,,-99.99,FreeWX 2.03,2013-06-20 12:29:00,
2013-06-20 07:34:00,81.0,79.3,29.94,North,-999,0.0,0.0,95,0.00,,,-99.99,FreeWX 2.03,2013-06-20 12:34:00,
2013-06-20 07:39:00,81.3,79.7,29.94,North,-999,0.0,0.0,95,0.00,,,-99.99,FreeWX 2.03,2013-06-20 12:39:00,
2013-06-20 07:44:00,81.3,79.7,29.97,North,-999,0.0,0.0,95,0.00,,,-99.99,FreeWX 2.03,2013-06-20 12:44:00,
2013-06-20 07:49:00,81.3,79.7,29.97,North,-999,0.0,0.0,95,0.00,,,-99.99,FreeWX 2.03,2013-06-20 12:49:00,
2013-06-20 07:54:00,81.5,79.9,29.97,North,-999,0.0,0.0,95,0.00,,,-99.99,FreeWX 2.03,2013-06-20 12:54:00,
2013-06-20 07:59:00,81.5,79.9,29.97,North,-999,0.0,0.0,95,0.00,,,-99.99,FreeWX 2.03,2013-06-20 12:59:00,
2013-06-20 08:04:00,81.9,80.2,29.97,North,-999,0.0,0.0,95,0.00,,,-99.99,FreeWX 2.03,2013-06-20 13:04:00,
2013-06-20 08:09:00,82.0,80.4,29.97,North,-999,0.0,0.0,95,0.00,,,-99.99,FreeWX 2.03,2013-06-20 13:09:00,
2013-06-20 08:14:00,82.2,80.6,29.97,North,-999,0.0,0.0,95,0.00,,,-99.99,FreeWX 2.03,2013-06-20 13:14:00,
2013-06-20 08:19:00,82.4,80.4,29.97,North,-999,0.0,0.0,94,0.00,,,-99.99,FreeWX 2.03,2013-06-20 13:19:00,
2013-06-20 08:24:00,82.4,80.4,29.97,North,-999,0.0,0.0,94,0.00,,,-99.99,FreeWX 2.03,2013-06-20 13:24:00,
2013-06-20 08:29:00,82.4,80.4,29.97,North,-999,0.0,0.0,94,0.00,,,-99.99,FreeWX 2.03,2013-06-20 13:29:00,
2013-06-20 08:34:00,82.6,80.6,29.97,North,-999,0.0,0.0,94,0.00,,,-99.99,FreeWX 2.03,2013-06-20 13:34:00,
2013-06-20 08:39:00,82.6,80.4,29.97,North,-999,0.0,0.0,93,0.00,,,-99.99,FreeWX 2.03,2013-06-20 13:39:00,
2013-06-20 08:44:00,82.9,80.8,29.97,North,-999,0.0,0.0,93,0.00,,,-99.99,FreeWX 2.03,2013-06-20 13:44:00,
2013-06-20 08:49:00,83.1,81.0,29.97,North,-999,0.0,0.0,93,0.00,,,-99.99,FreeWX 2.03,2013-06-20 13:49:00,
2013-06-20 08:54:00,83.3,81.1,29.97,North,-999,0.0,0.0,93,0.00,,,-99.99,FreeWX 2.03,2013-06-20 13:54:00,
2013-06-20 08:59:00,83.5,81.0,29.97,North,-999,0.0,0.0,92,0.00,,,-99.99,FreeWX 2.03,2013-06-20 13:59:00,
2013-06-20 09:04:00,83.7,81.1,29.97,North,-999,0.0,0.0,92,0.00,,,-99.99,FreeWX 2.03,2013-06-20 14:04:00,
2013-06-20 09:09:00,83.8,81.0,29.97,North,-999,0.0,0.0,91,0.00,,,-99.99,FreeWX 2.03,2013-06-20 14:09:00,
2013-06-20 09:14:00,84.0,80.8,30.00,North,-999,0.0,0.0,90,0.00,,,-99.99,FreeWX 2.03,2013-06-20 14:14:00,
2013-06-20 09:19:00,84.2,80.6,30.00,North,-999,0.0,0.0,89,0.00,,,-99.99,FreeWX 2.03,2013-06-20 14:19:00,
2013-06-20 09:24:00,84.2,80.6,30.00,North,-999,0.0,0.0,89,0.00,,,-99.99,FreeWX 2.03,2013-06-20 14:24:00,
2013-06-20 09:29:00,84.6,80.6,30.00,North,-999,0.0,0.0,88,0.00,,,-99.99,FreeWX 2.03,2013-06-20 14:29:00,
2013-06-20 09:34:00,84.7,80.8,30.00,North,-999,0.0,0.0,88,0.00,,,-99.99,FreeWX 2.03,2013-06-20 14:34:00,
2013-06-20 09:39:00,84.9,80.6,30.00,North,-999,0.0,0.0,87,0.00,,,-99.99,FreeWX 2.03,2013-06-20 14:39:00,
2013-06-20 09:44:00,85.1,80.8,30.00,North,-999,0.0,0.0,87,0.00,,,-99.99,FreeWX 2.03,2013-06-20 14:44:00,
2013-06-20 09:49:00,85.1,80.8,30.00,North,-999,0.0,0.0,87,0.00,,,-99.99,FreeWX 2.03,2013-06-20 14:49:00,
2013-06-20 09:54:00,85.3,81.0,30.00,North,-999,0.0,0.0,87,0.00,,,-99.99,FreeWX 2.03,2013-06-20 14:54:00,
2013-06-20 09:59:00,85.3,81.0,30.00,North,-999,0.0,0.0,87,0.00,,,-99.99,FreeWX 2.03,2013-06-20 14:59:00,
2013-06-20 10:04:00,85.5,81.1,30.00,North,-999,0.0,0.0,87,0.00,,,-99.99,FreeWX 2.03,2013-06-20 15:04:00,
2013-06-20 10:09:00,85.6,81.0,30.00,North,-999,0.0,0.0,86,0.00,,,-99.99,FreeWX 2.03,2013-06-20 15:09:00,
2013-06-20 10:14:00,86.0,81.3,30.00,North,-999,0.0,0.0,86,0.00,,,-99.99,FreeWX 2.03,2013-06-20 15:14:00,
2013-06-20 10:19:00,86.2,81.1,30.00,North,-999,0.0,0.0,85,0.00,,,-99.99,FreeWX 2.03,2013-06-20 15:19:00,
2013-06-20 10:24:00,86.4,81.3,30.00,North,-999,0.0,0.0,85,0.00,,,-99.99,FreeWX 2.03,2013-06-20 15:24:00,
2013-06-20 10:29:00,86.5,81.1,30.00,North,-999,0.0,0.0,84,0.00,,,-99.99,FreeWX 2.03,2013-06-20 15:29:00,
2013-06-20 10:34:00,86.9,81.5,30.00,North,-999,0.0,0.0,84,0.00,,,-99.99,FreeWX 2.03,2013-06-20 15:34:00,
2013-06-20 10:39:00,87.1,81.3,30.00,North,-999,0.0,0.0,83,0.00,,,-99.99,FreeWX 2.03,2013-06-20 15:39:00,
2013-06-20 10:44:00,87.3,81.1,30.00,North,-999,0.0,0.0,82,0.00,,,-99.99,FreeWX 2.03,2013-06-20 15:44:00,
2013-06-20 10:49:00,88.0,81.3,30.00,North,-999,0.0,0.0,81,0.00,,,-99.99,FreeWX 2.03,2013-06-20 15:49:00,
2013-06-20 10:54:00,88.7,81.3,30.00,North,-999,0.0,0.0,79,0.00,,,-99.99,FreeWX 2.03,2013-06-20 15:54:00,
2013-06-20 10:59:00,89.2,81.1,30.00,North,-999,0.0,0.0,77,0.00,,,-99.99,FreeWX 2.03,2013-06-20 15:59:00,
2013-06-20 11:04:00,89.6,80.6,30.00,North,-999,0.0,0.0,75,0.00,,,-99.99,FreeWX 2.03,2013-06-20 16:04:00,
2013-06-20 11:09:00,90.0,81.0,30.00,North,-999,0.0,0.0,75,0.00,,,-99.99,FreeWX 2.03,2013-06-20 16:09:00,
2013-06-20 11:14:00,90.3,81.0,30.03,North,-999,0.0,0.0,74,0.00,,,-99.99,FreeWX 2.03,2013-06-20 16:14:00,
2013-06-20 11:19:00,90.7,80.8,30.03,North,-999,0.0,0.0,73,0.00,,,-99.99,FreeWX 2.03,2013-06-20 16:19:00,
2013-06-20 11:24:00,90.9,80.6,30.03,North,-999,0.0,0.0,72,0.00,,,-99.99,FreeWX 2.03,2013-06-20 16:24:00,
2013-06-20 11:29:00,91.2,81.0,30.00,North,-999,0.0,0.0,72,0.00,,,-99.99,FreeWX 2.03,2013-06-20 16:29:00,
2013-06-20 11:34:00,91.8,81.0,30.00,North,-999,0.0,0.0,71,0.00,,,-99.99,FreeWX 2.03,2013-06-20 16:34:00,
2013-06-20 11:39:00,91.9,80.8,30.00,North,-999,0.0,0.0,70,0.00,,,-99.99,FreeWX 2.03,2013-06-20 16:39:00,
2013-06-20 11:44:00,91.8,80.1,30.00,North,-999,0.0,0.0,69,0.00,,,-99.99,FreeWX 2.03,2013-06-20 16:44:00,
2013-06-20 11:49:00,92.1,80.4,30.00,North,-999,0.0,0.0,69,0.00,,,-99.99,FreeWX 2.03,2013-06-20 16:49:00,
2013-06-20 11:54:00,92.5,80.4,30.00,North,-999,0.0,0.0,68,0.00,,,-99.99,FreeWX 2.03,2013-06-20 16:54:00,
2013-06-20 11:59:00,92.7,80.1,30.03,North,-999,0.0,0.0,67,0.00,,,-99.99,FreeWX 2.03,2013-06-20 16:59:00,
2013-06-20 12:04:00,92.7,79.5,30.03,North,-999,0.0,0.0,66,0.00,,,-99.99,FreeWX 2.03,2013-06-20 17:04:00,
2013-06-20 12:09:00,92.7,79.2,30.03,North,-999,0.0,0.0,65,0.00,,,-99.99,FreeWX 2.03,2013-06-20 17:09:00,
2013-06-20 12:14:00,92.8,79.3,30.00,North,-999,0.0,0.0,65,0.00,,,-99.99,FreeWX 2.03,2013-06-20 17:14:00,
2013-06-20 12:19:00,93.0,79.0,30.00,North,-999,0.0,0.0,64,0.00,,,-99.99,FreeWX 2.03,2013-06-20 17:19:00,
2013-06-20 12:24:00,92.8,79.3,30.00,North,-999,0.0,0.0,65,0.00,,,-99.99,FreeWX 2.03,2013-06-20 17:24:00,
2013-06-20 12:29:00,93.0,79.5,30.00,North,-999,0.0,0.0,65,0.00,,,-99.99,FreeWX 2.03,2013-06-20 17:29:00,
2013-06-20 12:34:00,93.4,79.9,30.00,North,-999,0.0,0.0,65,0.00,,,-99.99,FreeWX 2.03,2013-06-20 17:34:00,
2013-06-20 12:39:00,93.7,80.2,30.00,North,-999,0.0,0.0,65,0.00,,,-99.99,FreeWX 2.03,2013-06-20 17:39:00,
2013-06-20 12:44:00,93.7,80.2,30.00,North,-999,0.0,0.0,65,0.00,,,-99.99,FreeWX 2.03,2013-06-20 17:44:00,
2013-06-20 12:50:00,93.4,78.8,30.00,North,-999,0.0,0.0,63,0.00,,,-99.99,FreeWX 2.03,2013-06-20 17:50:00,
2013-06-20 12:55:00,93.0,79.0,30.00,North,-999,0.0,0.0,64,0.00,,,-99.99,FreeWX 2.03,2013-06-20 17:55:00,
2013-06-20 13:00:00,92.8,79.3,30.00,North,-999,0.0,0.0,65,0.00,,,-99.99,FreeWX 2.03,2013-06-20 18:00:00,
2013-06-20 13:05:00,92.8,79.7,30.00,North,-999,0.0,0.0,66,0.00,,,-99.99,FreeWX 2.03,2013-06-20 18:05:00,
2013-06-20 13:10:00,92.8,79.3,30.00,North,-999,0.0,0.0,65,0.00,,,-99.99,FreeWX 2.03,2013-06-20 18:10:00,
2013-06-20 13:15:00,92.5,79.0,30.00,North,-999,0.0,0.0,65,0.00,,,-99.99,FreeWX 2.03,2013-06-20 18:15:00,
2013-06-20 13:20:00,92.3,78.8,30.00,North,-999,0.0,0.0,65,0.00,,,-99.99,FreeWX 2.03,2013-06-20 18:20:00,
2013-06-20 13:25:00,92.1,78.6,30.00,North,-999,0.0,0.0,65,0.00,,,-99.99,FreeWX 2.03,2013-06-20 18:25:00,
2013-06-20 13:30:00,92.1,78.6,30.00,North,-999,0.0,0.0,65,0.00,,,-99.99,FreeWX 2.03,2013-06-20 18:30:00,
2013-06-20 13:35:00,92.1,79.2,30.00,North,-999,0.0,0.0,66,0.00,,,-99.99,FreeWX 2.03,2013-06-20 18:35:00,
2013-06-20 13:40:00,92.1,78.6,30.00,North,-999,0.0,0.0,65,0.00,,,-99.99,FreeWX 2.03,2013-06-20 18:40:00,
2013-06-20 13:45:00,91.9,78.4,30.00,North,-999,0.0,0.0,65,0.00,,,-99.99,FreeWX 2.03,2013-06-20 18:45:00,
2013-06-20 13:50:00,91.9,79.0,30.00,North,-999,0.0,0.0,66,0.00,,,-99.99,FreeWX 2.03,2013-06-20 18:50:00,
2013-06-20 13:55:00,91.9,79.0,30.00,North,-999,0.0,0.0,66,0.00,,,-99.99,FreeWX 2.03,2013-06-20 18:55:00,
2013-06-20 14:00:00,91.9,79.0,30.00,North,-999,0.0,0.0,66,0.00,,,-99.99,FreeWX 2.03,2013-06-20 19:00:00,
2013-06-20 14:05:00,91.8,79.2,30.00,North,-999,0.0,0.0,67,0.00,,,-99.99,FreeWX 2.03,2013-06-20 19:05:00,
2013-06-20 14:10:00,91.4,78.4,30.00,North,-999,0.0,0.0,66,0.00,,,-99.99,FreeWX 2.03,2013-06-20 19:10:00,
2013-06-20 14:15:00,91.2,78.6,30.00,North,-999,0.0,0.0,67,0.00,,,-99.99,FreeWX 2.03,2013-06-20 19:15:00,
2013-06-20 14:20:00,91.2,79.2,30.00,North,-999,0.0,0.0,68,0.00,,,-99.99,FreeWX 2.03,2013-06-20 19:20:00,
2013-06-20 14:25:00,91.4,79.3,30.00,North,-999,0.0,0.0,68,0.00,,,-99.99,FreeWX 2.03,2013-06-20 19:25:00,
2013-06-20 14:30:00,91.2,79.2,30.00,North,-999,0.0,0.0,68,0.00,,,-99.99,FreeWX 2.03,2013-06-20 19:30:00,
2013-06-20 14:35:00,91.2,79.5,30.00,North,-999,0.0,0.0,69,0.00,,,-99.99,FreeWX 2.03,2013-06-20 19:35:00,
2013-06-20 14:40:00,91.2,79.5,30.00,North,-999,0.0,0.0,69,0.00,,,-99.99,FreeWX 2.03,2013-06-20 19:40:00,
2013-06-20 14:45:00,91.4,79.7,30.00,North,-999,0.0,0.0,69,0.00,,,-99.99,FreeWX 2.03,2013-06-20 19:45:00,
2013-06-20 14:50:00,91.6,79.9,30.00,North,-999,0.0,0.0,69,0.00,,,-99.99,FreeWX 2.03,2013-06-20 19:50:00,
2013-06-20 14:55:00,91.6,79.9,30.00,North,-999,0.0,0.0,69,0.00,,,-99.99,FreeWX 2.03,2013-06-20 19:55:00,
2013-06-20 15:00:00,91.6,79.9,29.97,North,-999,0.0,0.0,69,0.00,,,-99.99,FreeWX 2.03,2013-06-20 20:00:00,
2013-06-20 15:05:00,91.6,79.5,29.97,North,-999,0.0,0.0,68,0.00,,,-99.99,FreeWX 2.03,2013-06-20 20:05:00,
2013-06-20 15:10:00,91.4,79.3,29.97,North,-999,0.0,0.0,68,0.00,,,-99.99,FreeWX 2.03,2013-06-20 20:10:00,
2013-06-20 15:15:00,91.4,79.7,29.97,North,-999,0.0,0.0,69,0.00,,,-99.99,FreeWX 2.03,2013-06-20 20:15:00,
2013-06-20 15:20:00,91.4,79.7,29.97,North,-999,0.0,0.0,69,0.00,,,-99.99,FreeWX 2.03,2013-06-20 20:20:00,
2013-06-20 15:25:00,91.6,79.5,29.97,North,-999,0.0,0.0,68,0.00,,,-99.99,FreeWX 2.03,2013-06-20 20:25:00,
2013-06-20 15:30:00,91.6,79.9,29.97,North,-999,0.0,0.0,69,0.00,,,-99.99,FreeWX 2.03,2013-06-20 20:30:00,
2013-06-20 15:35:00,91.6,79.9,29.97,North,-999,0.0,0.0,69,0.00,,,-99.99,FreeWX 2.03,2013-06-20 20:35:00,
2013-06-20 15:40:00,91.6,79.9,29.97,North,-999,0.0,0.0,69,0.00,,,-99.99,FreeWX 2.03,2013-06-20 20:40:00,
2013-06-20 15:45:00,91.8,80.1,29.97,North,-999,0.0,0.0,69,0.00,,,-99.99,FreeWX 2.03,2013-06-20 20:45:00,
2013-06-20 15:50:00,91.8,80.6,29.97,North,-999,0.0,0.0,70,0.00,,,-99.99,FreeWX 2.03,2013-06-20 20:50:00,
2013-06-20 15:55:00,91.8,80.1,29.97,North,-999,0.0,0.0,69,0.00,,,-99.99,FreeWX 2.03,2013-06-20 20:55:00,
2013-06-20 16:00:00,91.6,79.9,29.97,North,-999,0.0,0.0,69,0.00,,,-99.99,FreeWX 2.03,2013-06-20 21:00:00,
2013-06-20 16:05:00,91.4,79.7,29.97,North,-999,0.0,0.0,69,0.00,,,-99.99,FreeWX 2.03,2013-06-20 21:05:00,
2013-06-20 16:10:00,91.0,79.3,29.97,North,-999,0.0,0.0,69,0.00,,,-99.99,FreeWX 2.03,2013-06-20 21:10:00,
2013-06-20 16:15:00,90.9,80.1,29.97,North,-999,0.0,0.0,71,0.00,,,-99.99,FreeWX 2.03,2013-06-20 21:15:00,
2013-06-20 16:20:00,90.9,80.1,29.97,North,-999,0.0,0.0,71,0.00,,,-99.99,FreeWX 2.03,2013-06-20 21:20:00,
2013-06-20 16:25:00,90.7,79.9,29.97,North,-999,0.0,0.0,71,0.00,,,-99.99,FreeWX 2.03,2013-06-20 21:25:00,
2013-06-20 16:30:00,90.5,80.2,29.97,North,-999,0.0,0.0,72,0.00,,,-99.99,FreeWX 2.03,2013-06-20 21:30:00,
2013-06-20 16:35:00,90.5,80.2,29.97,North,-999,0.0,0.0,72,0.00,,,-99.99,FreeWX 2.03,2013-06-20 21:35:00,
2013-06-20 16:40:00,90.3,80.1,29.97,North,-999,0.0,0.0,72,0.00,,,-99.99,FreeWX 2.03,2013-06-20 21:40:00,
2013-06-20 16:45:00,90.3,80.1,29.97,North,-999,0.0,0.0,72,0.00,,,-99.99,FreeWX 2.03,2013-06-20 21:45:00,
2013-06-20 16:50:00,90.1,80.2,29.97,North,-999,0.0,0.0,73,0.00,,,-99.99,FreeWX 2.03,2013-06-20 21:50:00,
2013-06-20 16:55:00,90.1,80.2,29.97,North,-999,0.0,0.0,73,0.00,,,-99.99,FreeWX 2.03,2013-06-20 21:55:00,
2013-06-20 17:00:00,90.1,80.2,29.97,North,-999,0.0,0.0,73,0.00,,,-99.99,FreeWX 2.03,2013-06-20 22:00:00,
2013-06-20 17:05:00,90.0,80.1,29.97,North,-999,0.0,0.0,73,0.00,,,-99.99,FreeWX 2.03,2013-06-20 22:05:00,
2013-06-20 17:10:00,89.8,79.9,29.97,North,-999,0.0,0.0,73,0.00,,,-99.99,FreeWX 2.03,2013-06-20 22:10:00,
2013-06-20 17:15:00,89.8,80.4,29.97,North,-999,0.0,0.0,74,0.00,,,-99.99,FreeWX 2.03,2013-06-20 22:15:00,
2013-06-20 17:20:00,89.8,80.4,29.97,North,-999,0.0,0.0,74,0.00,,,-99.99,FreeWX 2.03,2013-06-20 22:20:00,
2013-06-20 17:25:00,89.8,80.4,29.97,North,-999,0.0,0.0,74,0.00,,,-99.99,FreeWX 2.03,2013-06-20 22:25:00,
2013-06-20 17:30:00,89.6,80.2,29.97,North,-999,0.0,0.0,74,0.00,,,-99.99,FreeWX 2.03,2013-06-20 22:30:00,
2013-06-20 17:35:00,89.6,80.2,29.97,North,-999,0.0,0.0,74,0.00,,,-99.99,FreeWX 2.03,2013-06-20 22:35:00,
2013-06-20 17:40:00,89.8,80.4,29.97,North,-999,0.0,0.0,74,0.00,,,-99.99,FreeWX 2.03,2013-06-20 22:40:00,
2013-06-20 17:45:00,89.8,80.4,29.97,North,-999,0.0,0.0,74,0.00,,,-99.99,FreeWX 2.03,2013-06-20 22:45:00,
2013-06-20 17:50:00,89.6,80.2,29.97,North,-999,0.0,0.0,74,0.00,,,-99.99,FreeWX 2.03,2013-06-20 22:50:00,
2013-06-20 17:55:00,89.6,80.2,29.97,North,-999,0.0,0.0,74,0.00,,,-99.99,FreeWX 2.03,2013-06-20 22:55:00,
2013-06-20 18:00:00,89.6,80.2,29.97,North,-999,0.0,0.0,74,0.00,,,-99.99,FreeWX 2.03,2013-06-20 23:00:00,
2013-06-20 18:05:00,89.4,80.1,29.97,North,-999,0.0,0.0,74,0.00,,,-99.99,FreeWX 2.03,2013-06-20 23:05:00,
2013-06-20 18:10:00,89.2,80.2,29.97,North,-999,0.0,0.0,75,0.00,,,-99.99,FreeWX 2.03,2013-06-20 23:10:00,
2013-06-20 18:15:00,89.2,80.2,29.94,North,-999,0.0,0.0,75,0.00,,,-99.99,FreeWX 2.03,2013-06-20 23:15:00,
2013-06-20 18:20:00,89.2,80.2,29.94,North,-999,0.0,0.0,75,0.00,,,-99.99,FreeWX 2.03,2013-06-20 23:20:00,
2013-06-20 18:25:00,89.1,80.1,29.94,North,-999,0.0,0.0,75,0.00,,,-99.99,FreeWX 2.03,2013-06-20 23:25:00,
2013-06-20 18:30:00,88.9,80.2,29.94,North,-999,0.0,0.0,76,0.00,,,-99.99,FreeWX 2.03,2013-06-20 23:30:00,
2013-06-20 18:35:00,88.9,80.2,29.94,North,-999,0.0,0.0,76,0.00,,,-99.99,FreeWX 2.03,2013-06-20 23:35:00,
2013-06-20 18:40:00,88.7,80.1,29.94,North,-999,0.0,0.0,76,0.00,,,-99.99,FreeWX 2.03,2013-06-20 23:40:00,
2013-06-20 18:45:00,88.7,80.1,29.94,North,-999,0.0,0.0,76,0.00,,,-99.99,FreeWX 2.03,2013-06-20 23:45:00,
2013-06-20 18:50:00,88.5,79.9,29.94,North,-999,0.0,0.0,76,0.00,,,-99.99,FreeWX 2.03,2013-06-20 23:50:00,
2013-06-20 18:55:00,88.3,79.7,29.94,North,-999,0.0,0.0,76,0.00,,,-99.99,FreeWX 2.03,2013-06-20 23:55:00,
2013-06-20 19:00:00,88.2,80.1,29.94,North,-999,0.0,0.0,77,0.00,,,-99.99,FreeWX 2.03,2013-06-21 00:00:00,
2013-06-20 19:05:00,88.2,80.1,29.94,North,-999,0.0,0.0,77,0.00,,,-99.99,FreeWX 2.03,2013-06-21 00:05:00,
2013-06-20 19:10:00,87.8,79.7,29.94,North,-999,0.0,0.0,77,0.00,,,-99.99,FreeWX 2.03,2013-06-21 00:10:00,
2013-06-20 19:15:00,87.6,79.9,29.94,North,-999,0.0,0.0,78,0.00,,,-99.99,FreeWX 2.03,2013-06-21 00:15:00,
2013-06-20 19:20:00,87.6,79.9,29.94,North,-999,0.0,0.0,78,0.00,,,-99.99,FreeWX 2.03,2013-06-21 00:20:00,
2013-06-20 19:25:00,87.3,79.5,29.94,North,-999,0.0,0.0,78,0.00,,,-99.99,FreeWX 2.03,2013-06-21 00:25:00,
2013-06-20 19:30:00,86.9,79.2,29.94,North,-999,0.0,0.0,78,0.00,,,-99.99,FreeWX 2.03,2013-06-21 00:30:00,
2013-06-20 19:35:00,86.7,79.3,29.94,North,-999,0.0,0.0,79,0.00,,,-99.99,FreeWX 2.03,2013-06-21 00:35:00,
2013-06-20 19:40:00,86.5,79.7,29.97,North,-999,0.0,0.0,80,0.00,,,-99.99,FreeWX 2.03,2013-06-21 00:40:00,
2013-06-20 19:45:00,86.2,79.3,29.97,North,-999,0.0,0.0,80,0.00,,,-99.99,FreeWX 2.03,2013-06-21 00:45:00,
2013-06-20 19:50:00,86.0,79.5,29.97,North,-999,0.0,0.0,81,0.00,,,-99.99,FreeWX 2.03,2013-06-21 00:50:00,
2013-06-20 19:55:00,85.8,79.7,29.97,North,-999,0.0,0.0,82,0.00,,,-99.99,FreeWX 2.03,2013-06-21 00:55:00,
2013-06-20 20:00:00,85.6,79.9,29.97,North,-999,0.0,0.0,83,0.00,,,-99.99,FreeWX 2.03,2013-06-21 01:00:00,
2013-06-20 20:05:00,85.5,79.7,29.97,North,-999,0.0,0.0,83,0.00,,,-99.99,FreeWX 2.03,2013-06-21 01:05:00,
2013-06-20 20:10:00,85.3,79.5,29.97,North,-999,0.0,0.0,83,0.00,,,-99.99,FreeWX 2.03,2013-06-21 01:10:00,
2013-06-20 20:15:00,85.1,79.7,29.97,North,-999,0.0,0.0,84,0.00,,,-99.99,FreeWX 2.03,2013-06-21 01:15:00,
2013-06-20 20:20:00,84.9,79.9,29.97,North,-999,0.0,0.0,85,0.00,,,-99.99,FreeWX 2.03,2013-06-21 01:20:00,
2013-06-20 20:25:00,84.9,79.9,29.97,North,-999,0.0,0.0,85,0.00,,,-99.99,FreeWX 2.03,2013-06-21 01:25:00,
2013-06-20 20:30:00,84.7,79.7,29.97,North,-999,0.0,0.0,85,0.00,,,-99.99,FreeWX 2.03,2013-06-21 01:30:00,
2013-06-20 20:35:00,84.4,79.7,29.97,North,-999,0.0,0.0,86,0.00,,,-99.99,FreeWX 2.03,2013-06-21 01:35:00,
2013-06-20 20:40:00,84.2,79.5,29.97,North,-999,0.0,0.0,86,0.00,,,-99.99,FreeWX 2.03,2013-06-21 01:40:00,
2013-06-20 20:45:00,84.2,79.5,29.97,North,-999,0.0,0.0,86,0.00,,,-99.99,FreeWX 2.03,2013-06-21 01:45:00,
2013-06-20 20:50:00,84.2,79.5,29.97,North,-999,0.0,0.0,86,0.00,,,-99.99,FreeWX 2.03,2013-06-21 01:50:00,
2013-06-20 20:55:00,84.0,79.7,29.97,North,-999,0.0,0.0,87,0.00,,,-99.99,FreeWX 2.03,2013-06-21 01:55:00,
2013-06-20 21:00:00,84.0,79.7,29.97,North,-999,0.0,0.0,87,0.00,,,-99.99,FreeWX 2.03,2013-06-21 02:00:00,
2013-06-20 21:05:00,84.0,80.1,29.97,North,-999,0.0,0.0,88,0.00,,,-99.99,FreeWX 2.03,2013-06-21 02:05:00,
2013-06-20 21:10:00,83.7,79.7,29.97,North,-999,0.0,0.0,88,0.00,,,-99.99,FreeWX 2.03,2013-06-21 02:10:00,
2013-06-20 21:15:00,83.5,79.5,29.97,North,-999,0.0,0.0,88,0.00,,,-99.99,FreeWX 2.03,2013-06-21 02:15:00,
2013-06-20 21:20:00,83.5,79.9,29.97,North,-999,0.0,0.0,89,0.00,,,-99.99,FreeWX 2.03,2013-06-21 02:20:00,
2013-06-20 21:25:00,83.5,79.9,29.97,North,-999,0.0,0.0,89,0.00,,,-99.99,FreeWX 2.03,2013-06-21 02:25:00,
2013-06-20 21:30:00,83.5,79.9,29.97,North,-999,0.0,0.0,89,0.00,,,-99.99,FreeWX 2.03,2013-06-21 02:30:00,
2013-06-20 21:35:00,83.5,79.9,29.97,North,-999,0.0,0.0,89,0.00,,,-99.99,FreeWX 2.03,2013-06-21 02:35:00,
2013-06-20 21:41:00,83.5,79.9,29.97,North,-999,0.0,0.0,89,0.00,,,-99.99,FreeWX 2.03,2013-06-21 02:41:00,
2013-06-20 21:46:00,83.3,79.7,29.97,North,-999,0.0,0.0,89,0.00,,,-99.99,FreeWX 2.03,2013-06-21 02:46:00,
2013-06-20 21:51:00,83.1,79.5,29.97,North,-999,0.0,0.0,89,0.00,,,-99.99,FreeWX 2.03,2013-06-21 02:51:00,
2013-06-20 21:56:00,83.1,79.5,29.97,North,-999,0.0,0.0,89,0.00,,,-99.99,FreeWX 2.03,2013-06-21 02:56:00,
2013-06-20 22:01:00,83.1,79.9,29.97,North,-999,0.0,0.0,90,0.00,,,-99.99,FreeWX 2.03,2013-06-21 03:01:00,
2013-06-20 22:06:00,83.1,79.9,29.97,North,-999,0.0,0.0,90,0.00,,,-99.99,FreeWX 2.03,2013-06-21 03:06:00,
2013-06-20 22:11:00,83.1,79.9,29.97,North,-999,0.0,0.0,90,0.00,,,-99.99,FreeWX 2.03,2013-06-21 03:11:00,
2013-06-20 22:16:00,82.9,79.7,29.97,North,-999,0.0,0.0,90,0.00,,,-99.99,FreeWX 2.03,2013-06-21 03:16:00,
2013-06-20 22:21:00,82.9,79.7,29.97,North,-999,0.0,0.0,90,0.00,,,-99.99,FreeWX 2.03,2013-06-21 03:21:00,
2013-06-20 22:26:00,82.9,79.7,29.97,North,-999,0.0,0.0,90,0.00,,,-99.99,FreeWX 2.03,2013-06-21 03:26:00,
2013-06-20 22:31:00,82.9,79.7,29.97,North,-999,0.0,0.0,90,0.00,,,-99.99,FreeWX 2.03,2013-06-21 03:31:00,
2013-06-20 22:36:00,82.9,79.7,29.97,North,-999,0.0,0.0,90,0.00,,,-99.99,FreeWX 2.03,2013-06-21 03:36:00,
2013-06-20 22:41:00,82.9,79.7,29.97,North,-999,0.0,0.0,90,0.00,,,-99.99,FreeWX 2.03,2013-06-21 03:41:00,
2013-06-20 22:46:00,82.9,79.7,29.97,North,-999,0.0,0.0,90,0.00,,,-99.99,FreeWX 2.03,2013-06-21 03:46:00,
2013-06-20 22:51:00,82.8,79.5,29.97,North,-999,0.0,0.0,90,0.00,,,-99.99,FreeWX 2.03,2013-06-21 03:51:00,
2013-06-20 22:56:00,82.6,79.3,30.00,North,-999,0.0,0.0,90,0.00,,,-99.99,FreeWX 2.03,2013-06-21 03:56:00,
2013-06-20 23:01:00,82.8,79.5,30.00,North,-999,0.0,0.0,90,0.00,,,-99.99,FreeWX 2.03,2013-06-21 04:01:00,
2013-06-20 23:06:00,82.8,79.5,30.00,North,-999,0.0,0.0,90,0.00,,,-99.99,FreeWX 2.03,2013-06-21 04:06:00,
2013-06-20 23:11:00,82.8,79.2,30.00,North,-999,0.0,0.0,89,0.00,,,-99.99,FreeWX 2.03,2013-06-21 04:11:00,
2013-06-20 23:16:00,82.6,79.0,30.00,North,-999,0.0,0.0,89,0.00,,,-99.99,FreeWX 2.03,2013-06-21 04:16:00,
2013-06-20 23:21:00,82.6,79.0,30.00,North,-999,0.0,0.0,89,0.00,,,-99.99,FreeWX 2.03,2013-06-21 04:21:00,
2013-06-20 23:26:00,82.6,79.0,30.00,North,-999,0.0,0.0,89,0.00,,,-99.99,FreeWX 2.03,2013-06-21 04:26:00,
2013-06-20 23:31:00,82.6,79.0,30.00,North,-999,0.0,0.0,89,0.00,,,-99.99,FreeWX 2.03,2013-06-21 04:31:00,
2013-06-20 23:36:00,82.6,79.3,30.00,North,-999,0.0,0.0,90,0.00,,,-99.99,FreeWX 2.03,2013-06-21 04:36:00,
2013-06-20 23:41:00,82.6,79.3,30.00,North,-999,0.0,0.0,90,0.00,,,-99.99,FreeWX 2.03,2013-06-21 04:41:00,
2013-06-20 23:46:00,82.4,78.8,30.00,North,-999,0.0,0.0,89,0.00,,,-99.99,FreeWX 2.03,2013-06-21 04:46:00,
2013-06-20 23:51:00,82.4,78.8,30.00,North,-999,0.0,0.0,89,0.00,,,-99.99,FreeWX 2.03,2013-06-21 04:51:00,
2013-06-20 23:56:00,82.4,79.2,30.00,North,-999,0.0,0.0,90,0.00,,,-99.99,FreeWX 2.03,2013-06-21 04:56:00,